Time,TemperatureF,DewpointF,PressureIn,WindDirection,WindDirectionDegrees,WindSpeedMPH,WindSpeedGustMPH,Humidity,HourlyPrecipIn,Conditions,Clouds,dailyrainin,SoftwareType,DateUTC
2013-03-20 00:00:00,33.8,15.7,30.18,West,259,0.0,3.0,47,0.00,,,0.00,VWS V14.01,2013-03-20 04:00:00,
2013-03-20 00:02:00,33.8,15.2,30.18,West,259,0.0,3.0,46,0.00,,,0.00,VWS V14.01,2013-03-20 04:02:00,
2013-03-20 00:07:00,34.0,15.9,30.18,West,259,1.0,3.0,47,0.00,,,0.00,VWS V14.01,2013-03-20 04:07:00,
2013-03-20 00:10:00,34.1,16.0,30.18,West,259,0.0,3.0,47,0.00,,,0.00,VWS V14.01,2013-03-20 04:10:00,
2013-03-20 00:12:00,34.3,15.7,30.18,West,259,0.0,3.0,46,0.00,,,0.00,VWS V14.01,2013-03-20 04:12:00,
2013-03-20 00:17:00,34.3,15.2,30.18,West,259,0.0,3.0,45,0.00,,,0.00,VWS V14.01,2013-03-20 04:17:00,
2013-03-20 00:20:00,34.3,15.2,30.18,West,259,0.0,3.0,45,0.00,,,0.00,VWS V14.01,2013-03-20 04:20:00,
2013-03-20 00:22:00,34.3,15.7,30.18,West,259,1.0,3.0,46,0.00,,,0.00,VWS V14.01,2013-03-20 04:22:00,
2013-03-20 00:27:00,34.1,15.0,30.18,West,259,0.0,3.0,45,0.00,,,0.00,VWS V14.01,2013-03-20 04:27:00,
2013-03-20 00:30:00,33.8,15.2,30.17,West,259,0.0,3.0,46,0.00,,,0.00,VWS V14.01,2013-03-20 04:30:00,
2013-03-20 00:32:00,33.7,15.1,30.17,West,259,0.0,3.0,46,0.00,,,0.00,VWS V14.01,2013-03-20 04:32:00,
2013-03-20 00:37:00,33.5,14.9,30.17,West,259,0.0,3.0,46,0.00,,,0.00,VWS V14.01,2013-03-20 04:37:00,
2013-03-20 00:40:00,33.5,15.4,30.17,West,259,0.0,3.0,47,0.00,,,0.00,VWS V14.01,2013-03-20 04:40:00,
2013-03-20 00:42:00,33.4,16.3,30.17,West,259,1.0,3.0,49,0.00,,,0.00,VWS V14.01,2013-03-20 04:42:00,
2013-03-20 00:47:00,33.4,14.9,30.18,West,259,1.0,3.0,46,0.00,,,0.00,VWS V14.01,2013-03-20 04:47:00,
2013-03-20 00:50:00,33.4,15.4,30.18,West,259,0.0,3.0,47,0.00,,,0.00,VWS V14.01,2013-03-20 04:50:00,
2013-03-20 00:52:00,33.4,16.3,30.18,West,259,1.0,3.0,49,0.00,,,0.00,VWS V14.01,2013-03-20 04:52:00,
2013-03-20 00:57:00,33.4,15.8,30.18,West,259,0.0,3.0,48,0.00,,,0.00,VWS V14.01,2013-03-20 04:57:00,
2013-03-20 01:00:00,33.5,15.4,30.17,West,259,1.0,3.0,47,0.00,,,0.00,VWS V14.01,2013-03-20 05:00:00,
2013-03-20 01:02:00,33.5,14.9,30.17,West,259,0.0,3.0,46,0.00,,,0.00,VWS V14.01,2013-03-20 05:02:00,
2013-03-20 01:07:00,33.5,15.4,30.17,West,259,0.0,3.0,47,0.00,,,0.00,VWS V14.01,2013-03-20 05:07:00,
2013-03-20 01:10:00,33.5,15.4,30.17,West,259,0.0,3.0,47,0.00,,,0.00,VWS V14.01,2013-03-20 05:10:00,
2013-03-20 01:12:00,33.5,15.9,30.17,West,259,0.0,3.0,48,0.00,,,0.00,VWS V14.01,2013-03-20 05:12:00,
2013-03-20 01:17:00,33.5,14.4,30.17,West,259,0.0,3.0,45,0.00,,,0.00,VWS V14.01,2013-03-20 05:17:00,
2013-03-20 01:20:00,33.5,14.4,30.17,WSW,258,1.0,3.0,45,0.00,,,0.00,VWS V14.01,2013-03-20 05:20:00,
2013-03-20 01:22:00,33.4,14.4,30.17,West,259,0.0,3.0,45,0.00,,,0.00,VWS V14.01,2013-03-20 05:22:00,
2013-03-20 01:27:00,33.2,14.7,30.17,West,259,0.0,3.0,46,0.00,,,0.00,VWS V14.01,2013-03-20 05:27:00,
2013-03-20 01:30:00,33.2,15.2,30.17,West,259,0.0,3.0,47,0.00,,,0.00,VWS V14.01,2013-03-20 05:30:00,
2013-03-20 01:32:00,33.1,15.1,30.17,West,259,0.0,3.0,47,0.00,,,0.00,VWS V14.01,2013-03-20 05:32:00,
2013-03-20 01:37:00,33.1,15.1,30.17,West,259,0.0,3.0,47,0.00,,,0.00,VWS V14.01,2013-03-20 05:37:00,
2013-03-20 01:40:00,33.1,15.1,30.17,West,259,0.0,3.0,47,0.00,,,0.00,VWS V14.01,2013-03-20 05:40:00,
2013-03-20 01:42:00,33.1,15.6,30.17,West,259,0.0,3.0,48,0.00,,,0.00,VWS V14.01,2013-03-20 05:42:00,
2013-03-20 01:48:00,33.1,15.1,30.17,West,259,0.0,3.0,47,0.00,,,0.00,VWS V14.01,2013-03-20 05:48:00,
2013-03-20 01:50:00,33.1,15.1,30.17,West,259,1.0,3.0,47,0.00,,,0.00,VWS V14.01,2013-03-20 05:50:00,
2013-03-20 01:53:00,32.9,14.9,30.17,West,259,0.0,3.0,47,0.00,,,0.00,VWS V14.01,2013-03-20 05:53:00,
2013-03-20 01:58:00,32.7,15.2,30.17,West,259,0.0,3.0,48,0.00,,,0.00,VWS V14.01,2013-03-20 05:58:00,
2013-03-20 02:00:00,32.5,15.0,30.16,West,259,0.0,3.0,48,0.00,,,0.00,VWS V14.01,2013-03-20 06:00:00,
2013-03-20 02:03:00,32.4,14.9,30.16,West,259,0.0,3.0,48,0.00,,,0.00,VWS V14.01,2013-03-20 06:03:00,
2013-03-20 02:08:00,32.2,14.7,30.16,West,259,0.0,3.0,48,0.00,,,0.00,VWS V14.01,2013-03-20 06:08:00,
2013-03-20 02:10:00,32.2,14.7,30.16,West,259,0.0,3.0,48,0.00,,,0.00,VWS V14.01,2013-03-20 06:10:00,
2013-03-20 02:13:00,32.1,14.6,30.16,West,259,0.0,3.0,48,0.00,,,0.00,VWS V14.01,2013-03-20 06:13:00,
2013-03-20 02:18:00,31.9,14.9,30.16,West,259,0.0,3.0,49,0.00,,,0.00,VWS V14.01,2013-03-20 06:18:00,
2013-03-20 02:20:00,31.9,14.4,30.16,West,259,0.0,3.0,48,0.00,,,0.00,VWS V14.01,2013-03-20 06:20:00,
2013-03-20 02:23:00,32.1,15.6,30.16,West,259,0.0,3.0,50,0.00,,,0.00,VWS V14.01,2013-03-20 06:23:00,
2013-03-20 02:28:00,32.2,14.7,30.16,WSW,258,0.0,3.0,48,0.00,,,0.00,VWS V14.01,2013-03-20 06:28:00,
2013-03-20 02:30:00,32.2,14.7,30.16,WSW,258,0.0,3.0,48,0.00,,,0.00,VWS V14.01,2013-03-20 06:30:00,
2013-03-20 02:33:00,32.2,14.7,30.16,WSW,258,0.0,3.0,48,0.00,,,0.00,VWS V14.01,2013-03-20 06:33:00,
2013-03-20 02:38:00,32.2,14.2,30.16,WSW,258,0.0,3.0,47,0.00,,,0.00,VWS V14.01,2013-03-20 06:38:00,
2013-03-20 02:40:00,32.2,14.7,30.16,WSW,258,0.0,3.0,48,0.00,,,0.00,VWS V14.01,2013-03-20 06:40:00,
2013-03-20 02:43:00,32.2,14.7,30.16,WSW,258,0.0,3.0,48,0.00,,,0.00,VWS V14.01,2013-03-20 06:43:00,
2013-03-20 02:48:00,32.2,15.2,30.16,West,259,0.0,3.0,49,0.00,,,0.00,VWS V14.01,2013-03-20 06:48:00,
2013-03-20 02:50:00,32.2,15.2,30.16,WSW,258,1.0,3.0,49,0.00,,,0.00,VWS V14.01,2013-03-20 06:50:00,
2013-03-20 02:53:00,32.2,15.7,30.16,WSW,257,0.0,3.0,50,0.00,,,0.00,VWS V14.01,2013-03-20 06:53:00,
2013-03-20 02:58:00,32.2,14.7,30.16,WSW,257,0.0,3.0,48,0.00,,,0.00,VWS V14.01,2013-03-20 06:58:00,
2013-03-20 03:00:00,32.2,15.2,30.15,WSW,257,0.0,3.0,49,0.00,,,0.00,VWS V14.01,2013-03-20 07:00:00,
2013-03-20 03:03:00,32.2,15.7,30.15,WSW,257,0.0,3.0,50,0.00,,,0.00,VWS V14.01,2013-03-20 07:03:00,
2013-03-20 03:10:00,32.1,14.2,30.15,WSW,257,0.0,3.0,47,0.00,,,0.00,VWS V14.01,2013-03-20 07:10:00,
2013-03-20 03:13:00,31.9,14.9,30.15,WSW,257,0.0,3.0,49,0.00,,,0.00,VWS V14.01,2013-03-20 07:13:00,
2013-03-20 03:20:00,31.6,14.2,30.14,WSW,257,0.0,3.0,48,0.00,,,0.00,VWS V14.01,2013-03-20 07:20:00,
2013-03-20 03:30:00,31.3,14.4,30.14,WSW,257,0.0,3.0,49,0.00,,,0.00,VWS V14.01,2013-03-20 07:30:00,
2013-03-20 03:38:00,31.2,15.2,30.14,WSW,257,0.0,3.0,51,0.00,,,0.00,VWS V14.01,2013-03-20 07:38:00,
2013-03-20 03:40:00,31.2,15.2,30.14,WSW,257,0.0,3.0,51,0.00,,,0.00,VWS V14.01,2013-03-20 07:40:00,
2013-03-20 03:43:00,31.2,14.7,30.14,WSW,257,0.0,3.0,50,0.00,,,0.00,VWS V14.01,2013-03-20 07:43:00,
2013-03-20 03:50:00,31.0,15.0,30.14,WSW,257,0.0,3.0,51,0.00,,,0.00,VWS V14.01,2013-03-20 07:50:00,
2013-03-20 04:00:00,30.9,15.4,30.13,WSW,257,0.0,3.0,52,0.00,,,0.00,VWS V14.01,2013-03-20 08:00:00,
2013-03-20 04:10:00,30.6,15.1,30.13,WSW,256,0.0,3.0,52,0.00,,,0.00,VWS V14.01,2013-03-20 08:10:00,
2013-03-20 04:14:00,32.1,14.6,30.15,WSW,257,0.0,3.0,48,0.00,,,0.00,VWS V14.01,2013-03-20 08:14:00,
2013-03-20 04:20:00,30.3,14.4,30.13,WSW,256,1.0,3.0,51,0.00,,,0.00,VWS V14.01,2013-03-20 08:20:00,
2013-03-20 04:24:00,31.6,14.2,30.14,WSW,257,0.0,3.0,48,0.00,,,0.00,VWS V14.01,2013-03-20 08:24:00,
2013-03-20 04:29:00,31.5,14.6,30.14,WSW,257,0.0,3.0,49,0.00,,,0.00,VWS V14.01,2013-03-20 08:29:00,
2013-03-20 04:30:00,30.4,14.9,30.13,WSW,256,0.0,3.0,52,0.00,,,0.00,VWS V14.01,2013-03-20 08:30:00,
2013-03-20 04:34:00,31.3,14.4,30.14,WSW,257,0.0,3.0,49,0.00,,,0.00,VWS V14.01,2013-03-20 08:34:00,
2013-03-20 04:39:00,31.2,14.7,30.14,WSW,257,0.0,3.0,50,0.00,,,0.00,VWS V14.01,2013-03-20 08:39:00,
2013-03-20 04:40:00,30.4,14.4,30.13,WSW,256,0.0,3.0,51,0.00,,,0.00,VWS V14.01,2013-03-20 08:40:00,
2013-03-20 04:44:00,30.4,14.4,30.13,WSW,256,0.0,3.0,51,0.00,,,0.00,VWS V14.01,2013-03-20 08:44:00,
2013-03-20 04:50:00,30.3,15.2,30.13,WSW,255,1.0,3.0,53,0.00,,,0.00,VWS V14.01,2013-03-20 08:50:00,
2013-03-20 04:54:00,31.0,15.0,30.14,WSW,257,0.0,3.0,51,0.00,,,0.00,VWS V14.01,2013-03-20 08:54:00,
2013-03-20 04:59:00,31.0,15.4,30.14,WSW,257,0.0,3.0,52,0.00,,,0.00,VWS V14.01,2013-03-20 08:59:00,
2013-03-20 05:00:00,30.3,15.2,30.12,WSW,250,0.0,3.0,53,0.00,,,0.00,VWS V14.01,2013-03-20 09:00:00,
2013-03-20 05:04:00,30.9,15.4,30.14,WSW,257,0.0,3.0,52,0.00,,,0.00,VWS V14.01,2013-03-20 09:04:00,
2013-03-20 05:09:00,30.7,15.2,30.13,WSW,257,0.0,3.0,52,0.00,,,0.00,VWS V14.01,2013-03-20 09:09:00,
2013-03-20 05:10:00,30.3,15.2,30.12,WSW,248,0.0,3.0,53,0.00,,,0.00,VWS V14.01,2013-03-20 09:10:00,
2013-03-20 05:14:00,30.6,15.1,30.13,WSW,256,0.0,3.0,52,0.00,,,0.00,VWS V14.01,2013-03-20 09:14:00,
2013-03-20 05:19:00,30.4,14.9,30.13,WSW,256,0.0,3.0,52,0.00,,,0.00,VWS V14.01,2013-03-20 09:19:00,
2013-03-20 05:20:00,30.4,15.3,30.12,SW,225,0.0,3.0,53,0.00,,,0.00,VWS V14.01,2013-03-20 09:20:00,
2013-03-20 05:24:00,30.4,14.4,30.13,WSW,257,0.0,3.0,51,0.00,,,0.00,VWS V14.01,2013-03-20 09:24:00,
2013-03-20 05:29:00,30.3,14.4,30.13,WSW,256,0.0,3.0,51,0.00,,,0.00,VWS V14.01,2013-03-20 09:29:00,
2013-03-20 05:30:00,30.6,15.9,30.12,SW,225,2.0,3.0,54,0.00,,,0.00,VWS V14.01,2013-03-20 09:30:00,
2013-03-20 05:34:00,30.4,14.4,30.13,WSW,256,0.0,3.0,51,0.00,,,0.00,VWS V14.01,2013-03-20 09:34:00,
2013-03-20 05:39:00,30.4,14.9,30.13,WSW,256,0.0,3.0,52,0.00,,,0.00,VWS V14.01,2013-03-20 09:39:00,
2013-03-20 05:40:00,30.6,15.5,30.12,SW,225,0.0,3.0,53,0.00,,,0.00,VWS V14.01,2013-03-20 09:40:00,
2013-03-20 05:44:00,30.4,14.4,30.13,WSW,256,0.0,3.0,51,0.00,,,0.00,VWS V14.01,2013-03-20 09:44:00,
2013-03-20 05:50:00,30.6,15.5,30.11,SW,225,0.0,3.0,53,0.00,,,0.00,VWS V14.01,2013-03-20 09:50:00,
2013-03-20 05:54:00,30.3,14.8,30.13,WSW,255,0.0,3.0,52,0.00,,,0.00,VWS V14.01,2013-03-20 09:54:00,
2013-03-20 06:00:00,30.6,17.6,30.12,SW,225,0.0,3.0,58,0.00,,,0.00,VWS V14.01,2013-03-20 10:00:00,
2013-03-20 06:04:00,30.3,14.8,30.12,WSW,251,0.0,3.0,52,0.00,,,0.00,VWS V14.01,2013-03-20 10:04:00,
2013-03-20 06:09:00,30.3,15.2,30.12,WSW,251,0.0,3.0,53,0.00,,,0.00,VWS V14.01,2013-03-20 10:09:00,
2013-03-20 06:10:00,30.6,16.8,30.12,SW,225,0.0,3.0,56,0.00,,,0.00,VWS V14.01,2013-03-20 10:10:00,
2013-03-20 06:15:00,30.3,15.2,30.12,WSW,248,0.0,3.0,53,0.00,,,0.00,VWS V14.01,2013-03-20 10:15:00,
2013-03-20 06:20:00,30.3,15.2,30.12,SW,225,1.0,3.0,53,0.00,,,0.00,VWS V14.01,2013-03-20 10:20:00,
2013-03-20 06:25:00,30.4,15.3,30.12,SW,225,1.0,3.0,53,0.00,,,0.00,VWS V14.01,2013-03-20 10:25:00,
2013-03-20 06:30:00,30.4,15.3,30.12,SW,225,0.0,3.0,53,0.00,,,0.00,VWS V14.01,2013-03-20 10:30:00,
2013-03-20 06:35:00,30.6,16.4,30.12,SW,225,0.0,3.0,55,0.00,,,0.00,VWS V14.01,2013-03-20 10:35:00,
2013-03-20 06:40:00,30.6,15.5,30.12,SW,225,0.0,3.0,53,0.00,,,0.00,VWS V14.01,2013-03-20 10:40:00,
2013-03-20 06:45:00,30.6,15.5,30.12,SW,225,0.0,3.0,53,0.00,,,0.00,VWS V14.01,2013-03-20 10:45:00,
2013-03-20 06:50:00,30.6,15.5,30.11,SW,225,0.0,3.0,53,0.00,,,0.00,VWS V14.01,2013-03-20 10:50:00,
2013-03-20 06:55:00,30.6,15.5,30.11,SW,225,0.0,3.0,53,0.00,,,0.00,VWS V14.01,2013-03-20 10:55:00,
2013-03-20 07:00:00,30.4,15.3,30.11,SW,225,0.0,3.0,53,0.00,,,0.00,VWS V14.01,2013-03-20 11:00:00,
2013-03-20 07:05:00,30.6,17.6,30.12,SW,225,0.0,3.0,58,0.00,,,0.00,VWS V14.01,2013-03-20 11:05:00,
2013-03-20 07:10:00,30.7,16.9,30.12,SW,225,0.0,3.0,56,0.00,,,0.00,VWS V14.01,2013-03-20 11:10:00,
2013-03-20 07:15:00,30.6,16.8,30.12,SW,225,0.0,3.0,56,0.00,,,0.00,VWS V14.01,2013-03-20 11:15:00,
2013-03-20 07:20:00,30.3,15.7,30.12,SW,225,0.0,3.0,54,0.00,,,0.00,VWS V14.01,2013-03-20 11:20:00,
2013-03-20 07:25:00,30.0,16.2,30.12,SW,225,0.0,3.0,56,0.00,,,0.00,VWS V14.01,2013-03-20 11:25:00,
2013-03-20 07:30:00,29.8,16.0,30.12,SW,225,0.0,3.0,56,0.00,,,0.00,VWS V14.01,2013-03-20 11:30:00,
2013-03-20 07:35:00,29.7,16.4,30.12,SW,225,0.0,3.0,57,0.00,,,0.00,VWS V14.01,2013-03-20 11:35:00,
2013-03-20 07:40:00,29.5,16.6,30.12,SW,225,0.0,3.0,58,0.00,,,0.00,VWS V14.01,2013-03-20 11:40:00,
2013-03-20 07:45:00,29.4,16.1,30.12,SW,225,0.0,3.0,57,0.00,,,0.00,VWS V14.01,2013-03-20 11:45:00,
2013-03-20 07:50:00,29.3,16.4,30.13,SW,225,0.0,3.0,58,0.00,,,0.00,VWS V14.01,2013-03-20 11:50:00,
2013-03-20 07:55:00,29.1,16.2,30.13,SW,225,0.0,3.0,58,0.00,,,0.00,VWS V14.01,2013-03-20 11:55:00,
2013-03-20 08:00:00,29.1,16.2,30.13,SW,225,0.0,3.0,58,0.00,,,0.00,VWS V14.01,2013-03-20 12:00:00,
2013-03-20 08:05:00,29.3,16.4,30.13,SW,225,1.0,3.0,58,0.00,,,0.00,VWS V14.01,2013-03-20 12:05:00,
2013-03-20 08:10:00,29.3,16.4,30.13,WSW,240,0.0,3.0,58,0.00,,,0.00,VWS V14.01,2013-03-20 12:10:00,
2013-03-20 08:16:00,29.5,16.6,30.13,WSW,238,3.0,3.0,58,0.00,,,0.00,VWS V14.01,2013-03-20 12:16:00,
2013-03-20 08:20:00,35.0,17.8,30.13,SW,228,4.0,4.0,49,0.00,,,0.00,VWS V14.01,2013-03-20 12:20:00,
2013-03-20 08:21:00,29.7,16.8,30.14,SW,217,3.0,3.0,58,0.00,,,0.00,VWS V14.01,2013-03-20 12:21:00,
2013-03-20 08:30:00,35.6,18.3,30.13,SW,233,4.0,4.0,49,0.00,,,0.00,VWS V14.01,2013-03-20 12:30:00,
2013-03-20 08:31:00,30.4,17.0,30.14,SW,215,4.0,4.0,57,0.00,,,0.00,VWS V14.01,2013-03-20 12:31:00,
2013-03-20 08:36:00,30.9,17.1,30.13,SW,215,4.0,4.0,56,0.00,,,0.00,VWS V14.01,2013-03-20 12:36:00,
2013-03-20 08:40:00,36.6,18.8,30.13,West,265,8.0,8.0,48,0.00,,,0.00,VWS V14.01,2013-03-20 12:40:00,
2013-03-20 08:42:00,31.3,17.0,30.13,SW,233,0.0,3.0,55,0.00,,,0.00,VWS V14.01,2013-03-20 12:42:00,
2013-03-20 08:47:00,31.8,17.5,30.13,SW,223,3.0,3.0,55,0.00,,,0.00,VWS V14.01,2013-03-20 12:47:00,
2013-03-20 08:50:00,37.3,18.4,30.13,West,262,8.0,8.0,46,0.00,,,0.00,VWS V14.01,2013-03-20 12:50:00,
2013-03-20 08:55:00,32.5,17.3,30.13,SW,225,3.0,3.0,53,0.00,,,0.00,VWS V14.01,2013-03-20 12:55:00,
2013-03-20 09:00:00,38.0,17.5,30.12,SW,219,9.0,9.0,43,0.00,,,0.00,VWS V14.01,2013-03-20 13:00:00,
2013-03-20 09:02:00,33.2,17.5,30.13,SW,230,2.0,3.0,52,0.00,,,0.00,VWS V14.01,2013-03-20 13:02:00,
2013-03-20 09:07:00,33.5,17.3,30.13,SW,234,3.0,3.0,51,0.00,,,0.00,VWS V14.01,2013-03-20 13:07:00,
2013-03-20 09:10:00,38.8,18.2,30.12,SW,218,8.0,8.0,43,0.00,,,0.00,VWS V14.01,2013-03-20 13:10:00,
2013-03-20 09:15:00,34.3,17.6,30.13,West,264,2.0,3.0,50,0.00,,,0.00,VWS V14.01,2013-03-20 13:15:00,
2013-03-20 09:20:00,39.1,18.0,30.12,WSW,241,8.0,8.0,42,0.00,,,0.00,VWS V14.01,2013-03-20 13:20:00,
2013-03-20 09:22:00,34.7,17.5,30.13,SW,215,5.0,5.0,49,0.00,,,0.00,VWS V14.01,2013-03-20 13:22:00,
2013-03-20 09:27:00,35.0,17.8,30.13,SW,225,2.0,3.0,49,0.00,,,0.00,VWS V14.01,2013-03-20 13:27:00,
2013-03-20 09:30:00,39.1,16.8,30.12,West,261,6.0,6.0,40,0.00,,,0.00,VWS V14.01,2013-03-20 13:30:00,
2013-03-20 09:32:00,35.5,18.2,30.13,SW,236,5.0,5.0,49,0.00,,,0.00,VWS V14.01,2013-03-20 13:32:00,
2013-03-20 09:37:00,35.9,18.6,30.13,SW,236,3.0,3.0,49,0.00,,,0.00,VWS V14.01,2013-03-20 13:37:00,
2013-03-20 09:42:00,36.3,18.5,30.13,SW,222,4.0,4.0,48,0.00,,,0.00,VWS V14.01,2013-03-20 13:42:00,
2013-03-20 09:47:00,36.8,18.5,30.13,WSW,254,4.0,4.0,47,0.00,,,0.00,VWS V14.01,2013-03-20 13:47:00,
2013-03-20 09:51:00,39.5,17.2,30.11,SW,234,5.0,0.0,40,0.00,,,0.00,VWS V14.01,2013-03-20 13:51:00,
2013-03-20 09:52:00,37.2,18.3,30.13,WSW,257,5.0,5.0,46,0.00,,,0.00,VWS V14.01,2013-03-20 13:52:00,
2013-03-20 09:56:00,40.1,18.3,30.11,West,263,7.0,0.0,41,0.00,,,0.00,VWS V14.01,2013-03-20 13:56:00,
2013-03-20 09:57:00,37.6,17.7,30.13,WSW,252,5.0,5.0,44,0.00,,,0.00,VWS V14.01,2013-03-20 13:57:00,
2013-03-20 10:00:00,40.1,17.7,30.11,WSW,250,6.0,0.0,40,0.00,,,0.00,VWS V14.01,2013-03-20 14:00:00,
2013-03-20 10:02:00,37.9,18.0,30.13,WSW,256,5.0,5.0,44,0.00,,,0.00,VWS V14.01,2013-03-20 14:02:00,
2013-03-20 10:07:00,38.2,17.7,30.12,WSW,256,8.0,8.0,43,0.00,,,0.00,VWS V14.01,2013-03-20 14:07:00,
2013-03-20 10:10:00,40.3,18.5,30.11,WSW,258,8.0,0.0,41,0.00,,,0.00,VWS V14.01,2013-03-20 14:10:00,
2013-03-20 10:12:00,40.6,18.2,30.11,SW,217,4.0,0.0,40,0.00,,,0.00,VWS V14.01,2013-03-20 14:12:00,
2013-03-20 10:13:00,38.5,18.0,30.12,SW,233,5.0,5.0,43,0.00,,,0.00,VWS V14.01,2013-03-20 14:13:00,
2013-03-20 10:17:00,40.9,16.6,30.10,WSW,244,8.0,0.0,37,0.00,,,0.00,VWS V14.01,2013-03-20 14:17:00,
2013-03-20 10:18:00,38.8,17.1,30.12,West,259,12.0,12.0,41,0.00,,,0.00,VWS V14.01,2013-03-20 14:18:00,
2013-03-20 10:20:00,40.9,17.9,30.10,West,267,8.0,0.0,39,0.00,,,0.00,VWS V14.01,2013-03-20 14:20:00,
2013-03-20 10:22:00,41.2,18.1,30.10,WSW,252,4.0,0.0,39,0.00,,,0.00,VWS V14.01,2013-03-20 14:22:00,
2013-03-20 10:23:00,38.8,17.7,30.12,WSW,257,8.0,8.0,42,0.00,,,0.00,VWS V14.01,2013-03-20 14:23:00,
2013-03-20 10:27:00,41.8,18.1,30.10,WNW,290,9.0,0.0,38,0.00,,,0.00,VWS V14.01,2013-03-20 14:27:00,
2013-03-20 10:28:00,39.2,17.5,30.12,West,263,8.0,8.0,41,0.00,,,0.00,VWS V14.01,2013-03-20 14:28:00,
2013-03-20 10:30:00,41.6,16.6,30.10,WSW,249,9.0,0.0,36,0.00,,,0.00,VWS V14.01,2013-03-20 14:30:00,
2013-03-20 10:32:00,41.8,17.5,30.10,West,277,8.0,0.0,37,0.00,,,0.00,VWS V14.01,2013-03-20 14:32:00,
2013-03-20 10:33:00,39.2,17.5,30.12,West,275,11.0,11.0,41,0.00,,,0.00,VWS V14.01,2013-03-20 14:33:00,
2013-03-20 10:37:00,41.9,18.2,30.10,SW,232,8.0,0.0,38,0.00,,,0.00,VWS V14.01,2013-03-20 14:37:00,
2013-03-20 10:40:00,41.9,17.5,30.10,SW,236,5.0,0.0,37,0.00,,,0.00,VWS V14.01,2013-03-20 14:40:00,
2013-03-20 10:42:00,42.1,18.3,30.10,SW,217,6.0,0.0,38,0.00,,,0.00,VWS V14.01,2013-03-20 14:42:00,
2013-03-20 10:47:00,42.6,17.5,30.09,SSW,201,12.0,0.0,36,0.00,,,0.00,VWS V14.01,2013-03-20 14:47:00,
2013-03-20 10:50:00,42.6,17.5,30.09,West,277,14.0,0.0,36,0.00,,,0.00,VWS V14.01,2013-03-20 14:50:00,
2013-03-20 10:52:00,39.5,17.2,30.11,West,275,6.0,0.0,40,0.00,,,0.00,VWS V14.01,2013-03-20 14:52:00,
2013-03-20 10:57:00,42.9,18.4,30.09,SSW,212,7.0,0.0,37,0.00,,,0.00,VWS V14.01,2013-03-20 14:57:00,
2013-03-20 11:00:00,43.1,18.0,30.08,WSW,249,8.0,0.0,36,0.00,,,0.00,VWS V14.01,2013-03-20 15:00:00,
2013-03-20 11:02:00,43.1,18.0,30.08,SW,219,6.0,0.0,36,0.00,,,0.00,VWS V14.01,2013-03-20 15:02:00,
2013-03-20 11:07:00,43.3,18.8,30.08,South,181,12.0,0.0,37,0.00,,,0.00,VWS V14.01,2013-03-20 15:07:00,
2013-03-20 11:10:00,43.5,17.7,30.08,SSW,206,8.0,0.0,35,0.00,,,0.00,VWS V14.01,2013-03-20 15:10:00,
2013-03-20 11:12:00,43.3,16.8,30.08,SW,234,8.0,0.0,34,0.00,,,0.00,VWS V14.01,2013-03-20 15:12:00,
2013-03-20 11:17:00,43.6,17.8,30.08,SW,228,8.0,0.0,35,0.00,,,0.00,VWS V14.01,2013-03-20 15:17:00,
2013-03-20 11:20:00,43.8,18.0,30.08,SW,230,7.0,0.0,35,0.00,,,0.00,VWS V14.01,2013-03-20 15:20:00,
2013-03-20 11:22:00,43.9,18.0,30.08,SW,236,13.0,0.0,35,0.00,,,0.00,VWS V14.01,2013-03-20 15:22:00,
2013-03-20 11:27:00,43.9,18.0,30.08,SSW,202,13.0,0.0,35,0.00,,,0.00,VWS V14.01,2013-03-20 15:27:00,
2013-03-20 11:30:00,43.9,18.0,30.07,SW,232,7.0,0.0,35,0.00,,,0.00,VWS V14.01,2013-03-20 15:30:00,
2013-03-20 11:32:00,44.3,19.0,30.07,WSW,242,7.0,0.0,36,0.00,,,0.00,VWS V14.01,2013-03-20 15:32:00,
2013-03-20 11:37:00,44.5,19.2,30.07,WSW,242,10.0,0.0,36,0.00,,,0.00,VWS V14.01,2013-03-20 15:37:00,
2013-03-20 11:40:00,44.5,18.6,30.07,WSW,240,11.0,0.0,35,0.00,,,0.00,VWS V14.01,2013-03-20 15:40:00,
2013-03-20 11:42:00,44.6,18.7,30.07,West,273,6.0,0.0,35,0.00,,,0.00,VWS V14.01,2013-03-20 15:42:00,
2013-03-20 11:47:00,44.3,17.7,30.06,SW,236,9.0,0.0,34,0.00,,,0.00,VWS V14.01,2013-03-20 15:47:00,
2013-03-20 11:50:00,44.3,18.4,30.06,SW,230,6.0,0.0,35,0.00,,,0.00,VWS V14.01,2013-03-20 15:50:00,
2013-03-20 11:52:00,44.2,16.9,30.06,West,267,16.0,0.0,33,0.00,,,0.00,VWS V14.01,2013-03-20 15:52:00,
2013-03-20 11:58:00,44.1,18.2,30.06,WSW,252,10.0,0.0,35,0.00,,,0.00,VWS V14.01,2013-03-20 15:58:00,
2013-03-20 12:00:00,43.9,18.7,30.06,West,264,13.0,0.0,36,0.00,,,0.00,VWS V14.01,2013-03-20 16:00:00,
2013-03-20 12:03:00,43.8,18.6,30.06,West,271,6.0,0.0,36,0.00,,,0.00,VWS V14.01,2013-03-20 16:03:00,
2013-03-20 12:08:00,43.8,18.6,30.06,West,259,13.0,0.0,36,0.00,,,0.00,VWS V14.01,2013-03-20 16:08:00,
2013-03-20 12:10:00,43.8,18.6,30.06,WSW,254,8.0,0.0,36,0.00,,,0.00,VWS V14.01,2013-03-20 16:10:00,
2013-03-20 12:13:00,44.1,18.9,30.06,WSW,243,7.0,0.0,36,0.00,,,0.00,VWS V14.01,2013-03-20 16:13:00,
2013-03-20 12:18:00,44.6,18.7,30.05,West,273,13.0,0.0,35,0.00,,,0.00,VWS V14.01,2013-03-20 16:18:00,
2013-03-20 12:20:00,44.8,19.5,30.05,West,271,14.0,0.0,36,0.00,,,0.00,VWS V14.01,2013-03-20 16:20:00,
2013-03-20 12:23:00,44.8,16.8,30.05,WSW,240,11.0,0.0,32,0.00,,,0.00,VWS V14.01,2013-03-20 16:23:00,
2013-03-20 12:28:00,44.5,17.9,30.05,West,275,5.0,0.0,34,0.00,,,0.00,VWS V14.01,2013-03-20 16:28:00,
2013-03-20 12:30:00,44.8,18.2,30.05,SW,219,6.0,0.0,34,0.00,,,0.00,VWS V14.01,2013-03-20 16:30:00,
2013-03-20 12:33:00,44.6,17.3,30.05,WSW,248,9.0,0.0,33,0.00,,,0.00,VWS V14.01,2013-03-20 16:33:00,
2013-03-20 12:38:00,44.8,17.5,30.05,SSW,204,7.0,0.0,33,0.00,,,0.00,VWS V14.01,2013-03-20 16:38:00,
2013-03-20 12:40:00,45.1,18.4,30.05,WSW,247,7.0,0.0,34,0.00,,,0.00,VWS V14.01,2013-03-20 16:40:00,
2013-03-20 12:43:00,45.5,18.8,30.05,SW,233,13.0,0.0,34,0.00,,,0.00,VWS V14.01,2013-03-20 16:43:00,
2013-03-20 12:48:00,45.4,16.5,30.04,SW,236,7.0,0.0,31,0.00,,,0.00,VWS V14.01,2013-03-20 16:48:00,
2013-03-20 12:50:00,45.2,16.4,30.04,SSW,211,9.0,0.0,31,0.00,,,0.00,VWS V14.01,2013-03-20 16:50:00,
2013-03-20 12:53:00,45.1,17.7,30.04,West,279,21.0,0.0,33,0.00,,,0.00,VWS V14.01,2013-03-20 16:53:00,
2013-03-20 12:58:00,44.9,18.2,30.04,WSW,251,9.0,0.0,34,0.00,,,0.00,VWS V14.01,2013-03-20 16:58:00,
2013-03-20 13:03:00,44.9,18.2,30.03,WSW,247,7.0,0.0,34,0.00,,,0.00,VWS V14.01,2013-03-20 17:03:00,
2013-03-20 13:08:00,45.4,15.8,30.03,SW,236,11.0,0.0,30,0.00,,,0.00,VWS V14.01,2013-03-20 17:08:00,
2013-03-20 13:13:00,45.2,15.6,30.03,West,259,12.0,0.0,30,0.00,,,0.00,VWS V14.01,2013-03-20 17:13:00,
2013-03-20 13:18:00,44.9,16.1,30.03,SW,217,14.0,0.0,31,0.00,,,0.00,VWS V14.01,2013-03-20 17:18:00,
2013-03-20 13:23:00,45.5,16.6,30.03,WSW,251,9.0,0.0,31,0.00,,,0.00,VWS V14.01,2013-03-20 17:23:00,
2013-03-20 13:28:00,45.2,14.9,30.03,West,276,13.0,0.0,29,0.00,,,0.00,VWS V14.01,2013-03-20 17:28:00,
2013-03-20 13:30:00,45.2,16.4,30.01,West,271,12.0,0.0,31,0.00,,,0.00,VWS V14.01,2013-03-20 17:30:00,
2013-03-20 13:53:00,45.7,14.5,30.01,West,266,11.0,0.0,28,0.00,,,0.00,VWS V14.01,2013-03-20 17:53:00,
2013-03-20 14:00:00,45.8,13.7,30.00,West,271,14.0,0.0,27,0.00,,,0.00,VWS V14.01,2013-03-20 18:00:00,
2013-03-20 14:03:00,44.9,13.8,30.00,SSW,213,8.0,0.0,28,0.00,,,0.00,VWS V14.01,2013-03-20 18:03:00,
2013-03-20 14:05:00,45.1,17.7,30.03,West,264,7.0,0.0,33,0.00,,,0.00,VWS V14.01,2013-03-20 18:05:00,
2013-03-20 14:15:00,45.1,17.7,30.03,WSW,254,9.0,0.0,33,0.00,,,0.00,VWS V14.01,2013-03-20 18:15:00,
2013-03-20 14:23:00,43.8,16.6,30.00,West,264,13.0,0.0,33,0.00,,,0.00,VWS V14.01,2013-03-20 18:23:00,
2013-03-20 14:25:00,45.1,16.3,30.03,WSW,242,10.0,0.0,31,0.00,,,0.00,VWS V14.01,2013-03-20 18:25:00,
2013-03-20 14:28:00,42.8,15.0,30.00,West,278,10.0,0.0,32,0.00,,,0.00,VWS V14.01,2013-03-20 18:28:00,
2013-03-20 14:33:00,43.2,16.7,29.99,West,271,8.0,0.0,34,0.00,,,0.00,VWS V14.01,2013-03-20 18:33:00,
2013-03-20 14:38:00,45.4,16.5,30.01,WNW,284,12.0,0.0,31,0.00,,,0.00,VWS V14.01,2013-03-20 18:38:00,
2013-03-20 14:43:00,45.4,16.5,30.01,SW,230,14.0,0.0,31,0.00,,,0.00,VWS V14.01,2013-03-20 18:43:00,
2013-03-20 14:48:00,45.8,16.1,30.01,West,267,10.0,0.0,30,0.00,,,0.00,VWS V14.01,2013-03-20 18:48:00,
2013-03-20 14:54:00,46.1,17.2,30.01,WSW,258,9.0,0.0,31,0.00,,,0.00,VWS V14.01,2013-03-20 18:54:00,
2013-03-20 14:58:00,40.9,15.4,30.00,WSW,246,7.0,0.0,35,0.00,,,0.00,VWS V14.01,2013-03-20 18:58:00,
2013-03-20 15:03:00,41.1,16.2,30.00,WNW,284,14.0,0.0,36,0.00,,,0.00,VWS V14.01,2013-03-20 19:03:00,
2013-03-20 15:04:00,46.0,15.5,30.01,WSW,237,11.0,0.0,29,0.00,,,0.00,VWS V14.01,2013-03-20 19:04:00,
2013-03-20 15:14:00,45.1,14.0,30.00,WNW,283,11.0,0.0,28,0.00,,,0.00,VWS V14.01,2013-03-20 19:14:00,
2013-03-20 15:18:00,39.6,16.7,30.00,SW,229,9.0,0.0,39,0.00,,,0.00,VWS V14.01,2013-03-20 19:18:00,
2013-03-20 15:19:00,44.6,14.3,30.00,WNW,282,17.0,0.0,29,0.00,,,0.00,VWS V14.01,2013-03-20 19:19:00,
2013-03-20 15:20:00,39.5,18.3,30.00,NW,312,11.0,0.0,42,0.00,,,0.00,VWS V14.01,2013-03-20 19:20:00,
2013-03-20 15:24:00,43.8,15.9,30.00,WNW,284,8.0,0.0,32,0.00,,,0.00,VWS V14.01,2013-03-20 19:24:00,
2013-03-20 15:28:00,38.8,19.3,30.00,SW,231,9.0,0.0,45,0.00,,,0.00,VWS V14.01,2013-03-20 19:28:00,
2013-03-20 15:33:00,38.6,18.6,30.00,SW,227,13.0,0.0,44,0.00,,,0.00,VWS V14.01,2013-03-20 19:33:00,
2013-03-20 15:35:00,42.8,15.0,29.99,West,272,8.0,0.0,32,0.00,,,0.00,VWS V14.01,2013-03-20 19:35:00,
2013-03-20 15:44:00,42.9,17.1,29.99,West,275,15.0,0.0,35,0.00,,,0.00,VWS V14.01,2013-03-20 19:44:00,
2013-03-20 15:48:00,38.9,17.2,30.00,WNW,288,17.0,0.0,41,0.00,,,0.00,VWS V14.01,2013-03-20 19:48:00,
2013-03-20 15:55:00,41.3,14.4,30.00,West,266,11.0,0.0,33,0.00,,,0.00,VWS V14.01,2013-03-20 19:55:00,
2013-03-20 16:05:00,40.9,16.6,30.00,SW,236,5.0,0.0,37,0.00,,,0.00,VWS V14.01,2013-03-20 20:05:00,
2013-03-20 16:14:00,40.6,16.4,30.00,West,273,11.0,0.0,37,0.00,,,0.00,VWS V14.01,2013-03-20 20:14:00,
2013-03-20 16:19:00,39.9,15.8,30.00,West,269,8.0,0.0,37,0.00,,,0.00,VWS V14.01,2013-03-20 20:19:00,
2013-03-20 16:29:00,39.1,19.6,30.00,WSW,244,8.0,0.0,45,0.00,,,0.00,VWS V14.01,2013-03-20 20:29:00,
2013-03-20 16:33:00,38.9,13.6,29.99,WNW,287,7.0,0.0,35,0.00,,,0.00,VWS V14.01,2013-03-20 20:33:00,
2013-03-20 16:35:00,38.8,19.3,30.00,WSW,242,7.0,0.0,45,0.00,,,0.00,VWS V14.01,2013-03-20 20:35:00,
2013-03-20 16:38:00,39.1,13.8,29.99,WNW,289,15.0,0.0,35,0.00,,,0.00,VWS V14.01,2013-03-20 20:38:00,
2013-03-20 16:44:00,38.9,18.3,30.00,West,281,7.0,0.0,43,0.00,,,0.00,VWS V14.01,2013-03-20 20:44:00,
2013-03-20 16:48:00,38.2,11.6,30.00,West,276,11.0,0.0,33,0.00,,,0.00,VWS V14.01,2013-03-20 20:48:00,
2013-03-20 16:49:00,38.9,18.3,30.00,West,275,6.0,0.0,43,0.00,,,0.00,VWS V14.01,2013-03-20 20:49:00,
2013-03-20 16:55:00,38.6,16.4,30.00,West,271,9.0,0.0,40,0.00,,,0.00,VWS V14.01,2013-03-20 20:55:00,
2013-03-20 17:04:00,38.5,16.9,30.00,WSW,257,8.0,0.0,41,0.00,,,0.00,VWS V14.01,2013-03-20 21:04:00,
2013-03-20 17:09:00,38.8,16.6,30.00,West,260,11.0,0.0,40,0.00,,,0.00,VWS V14.01,2013-03-20 21:09:00,
2013-03-20 17:14:00,38.6,15.8,30.00,West,259,13.0,0.0,39,0.00,,,0.00,VWS V14.01,2013-03-20 21:14:00,
2013-03-20 17:19:00,38.5,16.9,30.00,WNW,283,5.0,0.0,41,0.00,,,0.00,VWS V14.01,2013-03-20 21:19:00,
2013-03-20 17:24:00,39.1,16.8,29.99,West,269,6.0,0.0,40,0.00,,,0.00,VWS V14.01,2013-03-20 21:24:00,
2013-03-20 17:29:00,39.5,16.0,29.99,WSW,240,7.0,0.0,38,0.00,,,0.00,VWS V14.01,2013-03-20 21:29:00,
2013-03-20 17:34:00,38.6,13.3,29.99,WNW,292,16.0,0.0,35,0.00,,,0.00,VWS V14.01,2013-03-20 21:34:00,
2013-03-20 17:45:00,38.8,12.9,29.99,West,263,15.0,0.0,34,0.00,,,0.00,VWS V14.01,2013-03-20 21:45:00,
2013-03-20 17:55:00,38.0,12.1,30.00,WNW,286,8.0,0.0,34,0.00,,,0.00,VWS V14.01,2013-03-20 21:55:00,
2013-03-20 18:04:00,37.2,11.4,30.00,West,273,5.0,0.0,34,0.00,,,0.00,VWS V14.01,2013-03-20 22:04:00,
2013-03-20 18:09:00,37.8,11.3,30.00,WNW,285,8.0,0.0,33,0.00,,,0.00,VWS V14.01,2013-03-20 22:09:00,
2013-03-20 18:14:00,38.0,11.5,30.00,SW,232,7.0,0.0,33,0.00,,,0.00,VWS V14.01,2013-03-20 22:14:00,
2013-03-20 18:19:00,38.3,12.4,30.00,West,276,9.0,0.0,34,0.00,,,0.00,VWS V14.01,2013-03-20 22:19:00,
2013-03-20 18:24:00,37.6,11.1,30.01,WSW,255,11.0,0.0,33,0.00,,,0.00,VWS V14.01,2013-03-20 22:24:00,
2013-03-20 18:29:00,37.2,10.1,30.01,SW,231,8.0,0.0,32,0.00,,,0.00,VWS V14.01,2013-03-20 22:29:00,
2013-03-20 18:34:00,36.9,9.8,30.01,West,271,9.0,0.0,32,0.00,,,0.00,VWS V14.01,2013-03-20 22:34:00,
2013-03-20 18:39:00,36.8,11.7,30.01,WSW,257,8.0,0.0,35,0.00,,,0.00,VWS V14.01,2013-03-20 22:39:00,
2013-03-20 18:44:00,36.6,11.6,30.01,WNW,294,20.0,0.0,35,0.00,,,0.00,VWS V14.01,2013-03-20 22:44:00,
2013-03-20 18:49:00,36.0,10.4,30.01,WNW,302,14.0,0.0,34,0.00,,,0.00,VWS V14.01,2013-03-20 22:49:00,
2013-03-20 18:54:00,35.8,9.5,30.02,WSW,258,9.0,0.0,33,0.00,,,0.00,VWS V14.01,2013-03-20 22:54:00,
2013-03-20 18:59:00,35.5,9.3,30.02,West,267,17.0,0.0,33,0.00,,,0.00,VWS V14.01,2013-03-20 22:59:00,
2013-03-20 19:04:00,35.5,8.6,30.02,West,259,9.0,0.0,32,0.00,,,0.00,VWS V14.01,2013-03-20 23:04:00,
2013-03-20 19:09:00,35.2,8.3,30.02,WNW,297,9.0,0.0,32,0.00,,,0.00,VWS V14.01,2013-03-20 23:09:00,
2013-03-20 19:14:00,34.9,8.7,30.02,West,269,5.0,0.0,33,0.00,,,0.00,VWS V14.01,2013-03-20 23:14:00,
2013-03-20 19:19:00,34.7,8.6,30.02,WNW,284,11.0,0.0,33,0.00,,,0.00,VWS V14.01,2013-03-20 23:19:00,
2013-03-20 19:24:00,34.3,8.2,30.02,West,262,13.0,0.0,33,0.00,,,0.00,VWS V14.01,2013-03-20 23:24:00,
2013-03-20 19:29:00,34.0,7.9,30.02,West,269,8.0,0.0,33,0.00,,,0.00,VWS V14.01,2013-03-20 23:29:00,
2013-03-20 19:34:00,33.8,9.1,30.03,WSW,257,10.0,0.0,35,0.00,,,0.00,VWS V14.01,2013-03-20 23:34:00,
2013-03-20 19:39:00,33.5,8.1,30.03,West,275,9.0,0.0,34,0.00,,,0.00,VWS V14.01,2013-03-20 23:39:00,
2013-03-20 19:44:00,32.9,10.7,30.03,West,279,13.0,0.0,39,0.00,,,0.00,VWS V14.01,2013-03-20 23:44:00,
2013-03-20 19:49:00,32.5,10.9,30.03,WNW,296,10.0,0.0,40,0.00,,,0.00,VWS V14.01,2013-03-20 23:49:00,
2013-03-20 19:54:00,32.1,10.5,30.03,WNW,300,6.0,0.0,40,0.00,,,0.00,VWS V14.01,2013-03-20 23:54:00,
2013-03-20 19:59:00,31.6,10.6,30.03,WSW,255,6.0,0.0,41,0.00,,,0.00,VWS V14.01,2013-03-20 23:59:00,
2013-03-20 20:04:00,31.2,10.2,30.04,WSW,257,9.0,0.0,41,0.00,,,0.00,VWS V14.01,2013-03-21 00:04:00,
2013-03-20 20:09:00,30.9,10.5,30.04,WNW,302,8.0,0.0,42,0.00,,,0.00,VWS V14.01,2013-03-21 00:09:00,
2013-03-20 20:14:00,30.6,9.7,30.04,WNW,298,8.0,0.0,41,0.00,,,0.00,VWS V14.01,2013-03-21 00:14:00,
2013-03-20 20:20:00,30.3,10.0,30.05,West,261,9.0,0.0,42,0.00,,,0.00,VWS V14.01,2013-03-21 00:20:00,
2013-03-20 20:25:00,30.0,10.2,30.05,WNW,292,6.0,0.0,43,0.00,,,0.00,VWS V14.01,2013-03-21 00:25:00,
2013-03-20 20:30:00,29.8,10.1,30.05,West,271,12.0,0.0,43,0.00,,,0.00,VWS V14.01,2013-03-21 00:30:00,
2013-03-20 20:35:00,29.7,10.0,30.05,WNW,288,13.0,0.0,43,0.00,,,0.00,VWS V14.01,2013-03-21 00:35:00,
2013-03-20 20:40:00,29.5,9.8,30.05,WNW,302,8.0,0.0,43,0.00,,,0.00,VWS V14.01,2013-03-21 00:40:00,
2013-03-20 20:45:00,29.3,10.1,30.05,WNW,284,8.0,0.0,44,0.00,,,0.00,VWS V14.01,2013-03-21 00:45:00,
2013-03-20 20:50:00,29.1,9.9,30.05,WNW,298,7.0,0.0,44,0.00,,,0.00,VWS V14.01,2013-03-21 00:50:00,
2013-03-20 20:55:00,29.0,9.8,30.05,West,261,8.0,0.0,44,0.00,,,0.00,VWS V14.01,2013-03-21 00:55:00,
2013-03-20 21:00:00,28.8,9.6,30.05,WNW,284,11.0,0.0,44,0.00,,,0.00,VWS V14.01,2013-03-21 01:00:00,
2013-03-20 21:05:00,28.5,9.4,30.06,WNW,283,8.0,0.0,44,0.00,,,0.00,VWS V14.01,2013-03-21 01:05:00,
2013-03-20 21:10:00,28.4,8.2,30.06,West,278,6.0,0.0,42,0.00,,,0.00,VWS V14.01,2013-03-21 01:10:00,
2013-03-20 21:15:00,28.1,9.0,30.06,West,278,5.0,0.0,44,0.00,,,0.00,VWS V14.01,2013-03-21 01:15:00,
2013-03-20 21:20:00,27.9,8.3,30.06,WNW,288,13.0,0.0,43,0.00,,,0.00,VWS V14.01,2013-03-21 01:20:00,
2013-03-20 21:25:00,27.8,8.2,30.06,WNW,285,5.0,0.0,43,0.00,,,0.00,VWS V14.01,2013-03-21 01:25:00,
2013-03-20 21:30:00,27.8,8.7,30.06,NNW,332,6.0,0.0,44,0.00,,,0.00,VWS V14.01,2013-03-21 01:30:00,
2013-03-20 21:35:00,27.5,8.5,30.07,WNW,299,5.0,0.0,44,0.00,,,0.00,VWS V14.01,2013-03-21 01:35:00,
2013-03-20 21:40:00,27.5,9.0,30.07,West,273,6.0,0.0,45,0.00,,,0.00,VWS V14.01,2013-03-21 01:40:00,
2013-03-20 21:45:00,27.3,8.3,30.07,West,263,11.0,0.0,44,0.00,,,0.00,VWS V14.01,2013-03-21 01:45:00,
2013-03-20 21:50:00,27.2,8.7,30.07,West,276,5.0,0.0,45,0.00,,,0.00,VWS V14.01,2013-03-21 01:50:00,
2013-03-20 21:55:00,27.0,8.5,30.07,West,263,10.0,0.0,45,0.00,,,0.00,VWS V14.01,2013-03-21 01:55:00,
2013-03-20 22:00:00,26.9,8.9,30.07,WSW,256,5.0,0.0,46,0.00,,,0.00,VWS V14.01,2013-03-21 02:00:00,
2013-03-20 22:05:00,26.7,9.2,30.07,West,277,5.0,0.0,47,0.00,,,0.00,VWS V14.01,2013-03-21 02:05:00,
2013-03-20 22:10:00,26.6,8.6,30.07,West,278,2.0,0.0,46,0.00,,,0.00,VWS V14.01,2013-03-21 02:10:00,
2013-03-20 22:15:00,26.4,8.4,30.07,West,273,3.0,0.0,46,0.00,,,0.00,VWS V14.01,2013-03-21 02:15:00,
2013-03-20 22:20:00,26.4,8.4,30.08,West,279,8.0,0.0,46,0.00,,,0.00,VWS V14.01,2013-03-21 02:20:00,
2013-03-20 22:25:00,26.3,8.4,30.08,WNW,289,6.0,0.0,46,0.00,,,0.00,VWS V14.01,2013-03-21 02:25:00,
2013-03-20 22:30:00,26.1,7.7,30.08,WNW,296,9.0,0.0,45,0.00,,,0.00,VWS V14.01,2013-03-21 02:30:00,
2013-03-20 22:35:00,26.0,7.6,30.08,WNW,290,4.0,0.0,45,0.00,,,0.00,VWS V14.01,2013-03-21 02:35:00,
2013-03-20 22:40:00,25.8,6.9,30.08,West,261,5.0,0.0,44,0.00,,,0.00,VWS V14.01,2013-03-21 02:40:00,
2013-03-20 22:45:00,25.8,7.9,30.08,WNW,290,2.0,0.0,46,0.00,,,0.00,VWS V14.01,2013-03-21 02:45:00,
2013-03-20 22:50:00,25.7,7.8,30.08,WNW,294,6.0,0.0,46,0.00,,,0.00,VWS V14.01,2013-03-21 02:50:00,
2013-03-20 22:55:00,25.6,7.2,30.08,West,261,10.0,0.0,45,0.00,,,0.00,VWS V14.01,2013-03-21 02:55:00,
2013-03-20 23:00:00,25.6,7.7,30.08,West,261,9.0,0.0,46,0.00,,,0.00,VWS V14.01,2013-03-21 03:00:00,
2013-03-20 23:01:00,24.5,9.8,30.08,West,269,1.0,0.0,53,0.00,,,0.00,VWS V14.01,2013-03-21 03:01:00,
2013-03-20 23:05:00,25.4,8.0,30.08,West,280,5.0,0.0,47,0.00,,,0.00,VWS V14.01,2013-03-21 03:05:00,
2013-03-20 23:06:00,24.5,9.8,30.08,WSW,256,0.0,0.0,53,0.00,,,0.00,VWS V14.01,2013-03-21 03:06:00,
2013-03-20 23:10:00,25.3,8.4,30.08,West,279,4.0,0.0,48,0.00,,,0.00,VWS V14.01,2013-03-21 03:10:00,
2013-03-20 23:11:00,24.4,9.7,30.08,WSW,258,0.0,0.0,53,0.00,,,0.00,VWS V14.01,2013-03-21 03:11:00,
2013-03-20 23:15:00,25.3,8.4,30.08,WNW,282,2.0,0.0,48,0.00,,,0.00,VWS V14.01,2013-03-21 03:15:00,
2013-03-20 23:16:00,24.2,10.0,30.07,West,259,0.0,0.0,54,0.00,,,0.00,VWS V14.01,2013-03-21 03:16:00,
2013-03-20 23:20:00,25.1,8.6,30.08,WNW,286,5.0,0.0,49,0.00,,,0.00,VWS V14.01,2013-03-21 03:20:00,
2013-03-20 23:21:00,24.4,10.6,30.07,West,259,2.0,0.0,55,0.00,,,0.00,VWS V14.01,2013-03-21 03:21:00,
2013-03-20 23:25:00,25.0,9.0,30.08,West,266,5.0,0.0,50,0.00,,,0.00,VWS V14.01,2013-03-21 03:25:00,
2013-03-20 23:26:00,24.4,10.1,30.07,West,259,0.0,0.0,54,0.00,,,0.00,VWS V14.01,2013-03-21 03:26:00,
2013-03-20 23:30:00,25.0,9.0,30.08,West,281,2.0,0.0,50,0.00,,,0.00,VWS V14.01,2013-03-21 03:30:00,
2013-03-20 23:31:00,24.4,11.0,30.07,West,259,0.0,0.0,56,0.00,,,0.00,VWS V14.01,2013-03-21 03:31:00,
2013-03-20 23:35:00,25.0,9.0,30.08,West,267,4.0,0.0,50,0.00,,,0.00,VWS V14.01,2013-03-21 03:35:00,
2013-03-20 23:36:00,24.5,11.1,30.07,West,259,0.0,0.0,56,0.00,,,0.00,VWS V14.01,2013-03-21 03:36:00,
2013-03-20 23:40:00,24.8,9.2,30.08,West,263,1.0,0.0,51,0.00,,,0.00,VWS V14.01,2013-03-21 03:40:00,
2013-03-20 23:41:00,24.7,11.2,30.07,West,259,0.0,0.0,56,0.00,,,0.00,VWS V14.01,2013-03-21 03:41:00,
2013-03-20 23:45:00,24.8,9.2,30.08,WNW,293,2.0,0.0,51,0.00,,,0.00,VWS V14.01,2013-03-21 03:45:00,
2013-03-20 23:46:00,24.5,10.7,30.07,West,264,0.0,0.0,55,0.00,,,0.00,VWS V14.01,2013-03-21 03:46:00,
2013-03-20 23:50:00,24.8,9.2,30.08,West,269,2.0,0.0,51,0.00,,,0.00,VWS V14.01,2013-03-21 03:50:00,
2013-03-20 23:51:00,24.4,11.4,30.07,West,264,0.0,0.0,57,0.00,,,0.00,VWS V14.01,2013-03-21 03:51:00,
2013-03-20 23:56:00,24.7,9.6,30.08,West,272,1.0,0.0,52,0.00,,,0.00,VWS V14.01,2013-03-21 03:56:00,